createdAt,value
2023-01-25T00:01:55.698Z,4.80
2023-01-25T00:04:24.133Z,4.70
2023-01-25T00:06:52.031Z,4.70
2023-01-25T00:09:20.872Z,4.70
2023-01-25T00:11:48.404Z,4.70
2023-01-25T00:14:16.794Z,4.70
2023-01-25T00:16:44.626Z,4.70
2023-01-25T00:19:12.591Z,4.60
2023-01-25T00:21:40.172Z,4.70
2023-01-25T00:24:07.908Z,4.60
2023-01-25T00:26:36.476Z,4.60
2023-01-25T00:29:03.940Z,4.60
2023-01-25T00:31:34.325Z,4.60
2023-01-25T00:34:25.486Z,4.60
2023-01-25T00:37:01.731Z,4.60
2023-01-25T00:39:29.804Z,4.60
2023-01-25T00:41:57.042Z,4.70
2023-01-25T00:44:24.318Z,4.60
2023-01-25T00:46:51.506Z,4.70
2023-01-25T00:49:27.989Z,4.70
2023-01-25T00:51:56.160Z,4.60
2023-01-25T00:54:24.094Z,4.70
2023-01-25T00:56:56.711Z,4.60
2023-01-25T00:59:25.046Z,4.60
2023-01-25T01:01:53.457Z,4.60
2023-01-25T01:04:25.402Z,4.60
2023-01-25T01:06:54.284Z,4.60
2023-01-25T01:09:23.613Z,4.60
2023-01-25T01:11:51.035Z,4.60
2023-01-25T01:14:18.714Z,4.60
2023-01-25T01:16:46.072Z,4.60
2023-01-25T01:19:13.533Z,4.60
2023-01-25T01:21:41.041Z,4.60
2023-01-25T01:24:11.023Z,4.60
2023-01-25T01:26:38.576Z,4.60
2023-01-25T01:29:06.808Z,4.60
2023-01-25T01:31:34.386Z,4.60
2023-01-25T01:34:02.159Z,4.60
2023-01-25T01:36:31.432Z,4.70
2023-01-25T01:39:00.218Z,4.70
2023-01-25T01:41:27.606Z,4.60
2023-01-25T01:43:54.893Z,4.70
2023-01-25T01:46:33.588Z,4.70
2023-01-25T01:49:22.463Z,4.70
2023-01-25T01:51:54.578Z,4.70
2023-01-25T01:54:41.496Z,4.60
2023-01-25T01:57:37.369Z,4.60
2023-01-25T02:04:08.197Z,4.60
2023-01-25T02:06:47.528Z,4.60
2023-01-25T02:09:22.432Z,4.60
2023-01-25T02:11:53.163Z,4.50
2023-01-25T02:14:22.866Z,4.50
2023-01-25T02:16:50.220Z,4.50
2023-01-25T02:19:57.202Z,4.50
2023-01-25T02:22:38.739Z,4.50
2023-01-25T02:25:12.168Z,4.50
2023-01-25T02:27:46.553Z,4.50
2023-01-25T02:30:14.138Z,4.50
2023-01-25T02:32:42.583Z,4.50
2023-01-25T02:35:19.964Z,4.50
2023-01-25T02:37:47.551Z,4.40
2023-01-25T02:40:15.055Z,4.40
2023-01-25T02:42:49.154Z,4.40
2023-01-25T02:45:22.717Z,4.40
2023-01-25T02:47:49.992Z,4.40
2023-01-25T02:50:17.541Z,4.40
2023-01-25T02:52:44.874Z,4.30
2023-01-25T02:55:14.100Z,4.30
2023-01-25T02:57:41.460Z,4.30
2023-01-25T03:01:07.048Z,4.30
2023-01-25T03:03:34.346Z,4.30
2023-01-25T03:06:01.584Z,4.30
2023-01-25T03:08:29.132Z,4.30
2023-01-25T03:11:01.910Z,4.30
2023-01-25T03:13:29.949Z,4.30
2023-01-25T03:16:04.913Z,4.30
2023-01-25T03:18:32.331Z,4.30
2023-01-25T03:21:10.549Z,4.30
2023-01-25T03:23:38.831Z,4.30
2023-01-25T03:26:17.238Z,4.30
2023-01-25T03:28:44.922Z,4.30
2023-01-25T03:31:15.244Z,4.30
2023-01-25T03:33:43.124Z,4.30
2023-01-25T03:36:13.411Z,4.40
2023-01-25T03:38:40.651Z,4.40
2023-01-25T03:41:09.700Z,4.40
2023-01-25T03:43:36.937Z,4.40
2023-01-25T03:46:04.328Z,4.40
2023-01-25T03:48:31.876Z,4.40
2023-01-25T03:51:00.910Z,4.40
2023-01-25T03:53:31.024Z,4.30
2023-01-25T03:56:09.541Z,4.30
2023-01-25T03:58:40.462Z,4.30
2023-01-25T04:01:08.703Z,4.30
2023-01-25T04:03:36.190Z,4.30
2023-01-25T04:06:04.310Z,4.20
2023-01-25T04:08:31.895Z,4.20
2023-01-25T04:11:06.154Z,4.10
2023-01-25T04:13:37.258Z,4.20
2023-01-25T04:16:06.555Z,4.10
2023-01-25T04:18:34.270Z,4.00
2023-01-25T04:21:01.494Z,4.00
2023-01-25T04:23:29.060Z,4.00
2023-01-25T04:26:07.714Z,4.00
2023-01-25T04:28:35.765Z,4.00
2023-01-25T04:31:06.417Z,4.00
2023-01-25T04:33:35.360Z,3.90
2023-01-25T04:36:02.973Z,3.90
2023-01-25T04:38:30.225Z,3.90
2023-01-25T04:40:57.434Z,3.90
2023-01-25T04:43:26.375Z,3.80
2023-01-25T04:49:53.464Z,3.80
2023-01-25T04:52:20.561Z,3.70
2023-01-25T04:54:47.717Z,3.70
2023-01-25T04:57:14.903Z,3.70
2023-01-25T04:59:44.738Z,3.60
2023-01-25T05:02:12.001Z,3.60
2023-01-25T05:04:39.207Z,3.60
2023-01-25T05:07:06.385Z,3.60
2023-01-25T05:09:33.769Z,3.60
2023-01-25T05:12:01.098Z,3.60
2023-01-25T05:14:28.335Z,3.60
2023-01-25T05:16:55.575Z,3.60
2023-01-25T05:19:22.960Z,3.50
2023-01-25T05:21:59.141Z,3.50
2023-01-25T05:24:34.775Z,3.50
2023-01-25T05:27:08.047Z,3.50
2023-01-25T05:29:41.404Z,3.40
2023-01-25T05:32:16.485Z,3.40
2023-01-25T05:34:45.333Z,3.40
2023-01-25T05:37:17.603Z,3.40
2023-01-25T05:39:45.201Z,3.40
2023-01-25T05:42:17.961Z,3.40
2023-01-25T05:44:47.449Z,3.30
2023-01-25T05:47:17.954Z,3.30
2023-01-25T05:49:45.312Z,3.30
2023-01-25T05:52:17.389Z,3.30
2023-01-25T05:54:45.037Z,3.30
2023-01-25T05:57:15.018Z,3.30
2023-01-25T05:59:42.293Z,3.30
2023-01-25T06:02:09.580Z,3.30
2023-01-25T06:04:36.843Z,3.30
2023-01-25T06:07:04.215Z,3.30
2023-01-25T06:09:31.451Z,3.30
2023-01-25T06:11:58.790Z,3.30
2023-01-25T06:14:25.970Z,3.30
2023-01-25T06:16:53.181Z,3.30
2023-01-25T06:27:20.938Z,3.40
2023-01-25T06:34:13.780Z,3.30
2023-01-25T06:36:46.473Z,3.40
2023-01-25T06:39:15.466Z,3.30
2023-01-25T06:41:47.110Z,3.40
2023-01-25T06:44:15.723Z,3.30
2023-01-25T06:46:45.308Z,3.30
2023-01-25T06:49:16.208Z,3.30
2023-01-25T06:51:45.160Z,3.30
2023-01-25T06:54:14.200Z,3.30
2023-01-25T06:56:44.371Z,3.30
2023-01-25T06:59:12.589Z,3.30
2023-01-25T07:01:40.877Z,3.30
2023-01-25T07:04:14.253Z,3.40
2023-01-25T07:06:45.366Z,3.30
2023-01-25T07:09:50.637Z,3.40
2023-01-25T07:12:20.892Z,3.40
2023-01-25T07:14:49.856Z,3.40
2023-01-25T07:17:20.388Z,3.40
2023-01-25T07:19:52.522Z,3.40
2023-01-25T07:22:20.803Z,3.30
2023-01-25T07:24:52.010Z,3.40
2023-01-25T07:27:20.404Z,3.30
2023-01-25T07:29:51.231Z,3.30
2023-01-25T07:32:30.231Z,3.30
2023-01-25T07:35:00.706Z,3.30
2023-01-25T07:37:34.905Z,3.30
2023-01-25T07:40:08.631Z,3.30
2023-01-25T07:42:38.076Z,3.30
2023-01-25T07:45:11.070Z,3.30
2023-01-25T07:47:40.273Z,3.30
2023-01-25T07:50:09.308Z,3.30
2023-01-25T07:52:39.537Z,3.30
2023-01-25T07:55:13.339Z,3.30
2023-01-25T07:58:02.028Z,3.30
2023-01-25T08:00:32.465Z,3.30
2023-01-25T08:03:00.903Z,3.30
2023-01-25T08:05:29.573Z,3.30
2023-01-25T08:07:58.762Z,3.30
2023-01-25T08:10:27.408Z,3.30
2023-01-25T08:12:56.455Z,3.30
2023-01-25T08:15:25.712Z,3.30
2023-01-25T08:17:55.682Z,3.40
2023-01-25T08:20:24.578Z,3.40
2023-01-25T08:22:55.267Z,3.40
2023-01-25T08:25:23.339Z,3.40
2023-01-25T08:27:55.168Z,3.50
2023-01-25T08:30:25.630Z,3.50
2023-01-25T08:32:55.723Z,3.50
2023-01-25T08:36:25.755Z,3.50
2023-01-25T08:39:15.326Z,3.50
2023-01-25T08:41:43.770Z,3.50
2023-01-25T08:44:15.664Z,3.50
2023-01-25T08:46:43.879Z,3.40
2023-01-25T08:49:11.974Z,3.50
2023-01-25T08:51:42.499Z,3.40
2023-01-25T08:54:13.562Z,3.40
2023-01-25T08:56:42.887Z,3.40
2023-01-25T08:59:17.207Z,3.40
2023-01-25T09:01:45.593Z,3.50
2023-01-25T09:04:14.536Z,3.50
2023-01-25T09:06:43.647Z,3.50
2023-01-25T09:09:15.296Z,3.50
2023-01-25T09:11:45.575Z,3.50
2023-01-25T09:14:13.402Z,3.50
2023-01-25T09:16:42.757Z,3.50
2023-01-25T09:19:12.418Z,3.50
2023-01-25T09:21:44.232Z,3.50
2023-01-25T09:24:12.504Z,3.50
2023-01-25T09:26:50.239Z,3.50
2023-01-25T09:29:30.735Z,3.50
2023-01-25T09:32:00.388Z,3.50
2023-01-25T09:34:28.903Z,3.50
2023-01-25T09:37:01.325Z,3.50
2023-01-25T09:39:29.016Z,3.50
2023-01-25T09:42:14.953Z,3.50
2023-01-25T09:45:04.893Z,3.50
2023-01-25T09:48:18.640Z,3.50
2023-01-25T09:51:04.319Z,3.50
2023-01-25T09:53:52.388Z,3.50
2023-01-25T09:56:35.387Z,3.50
2023-01-25T09:59:17.219Z,3.50
2023-01-25T10:01:54.744Z,3.50
2023-01-25T10:04:44.123Z,3.50
2023-01-25T10:07:24.085Z,3.50
2023-01-25T10:10:35.772Z,3.50
2023-01-25T10:14:02.465Z,3.50
2023-01-25T10:16:56.822Z,3.50
2023-01-25T10:19:54.256Z,3.50
2023-01-25T10:22:30.102Z,3.50
2023-01-25T10:25:32.485Z,3.50
2023-01-25T10:28:22.782Z,3.50
2023-01-25T10:31:06.411Z,3.50
2023-01-25T10:33:41.245Z,3.50
2023-01-25T10:36:22.929Z,3.50
2023-01-25T10:39:01.307Z,3.50
2023-01-25T10:45:30.221Z,3.60
2023-01-25T10:48:11.028Z,3.60
2023-01-25T10:50:47.630Z,3.60
2023-01-25T10:53:46.999Z,3.60
2023-01-25T10:56:32.484Z,3.70
2023-01-25T10:59:31.898Z,3.70
2023-01-25T11:03:15.099Z,3.70
2023-01-25T11:05:56.792Z,3.70
2023-01-25T11:08:40.032Z,3.70
2023-01-25T11:11:41.486Z,3.70
2023-01-25T11:14:20.577Z,3.70
2023-01-25T11:16:51.287Z,3.70
2023-01-25T11:19:31.573Z,3.70
2023-01-25T11:22:02.322Z,3.70
2023-01-25T11:24:50.813Z,3.70
2023-01-25T11:27:33.015Z,3.70
2023-01-25T11:30:21.173Z,3.70
2023-01-25T11:32:49.921Z,3.80
2023-01-25T11:35:31.271Z,3.70
2023-01-25T11:38:24.142Z,3.70
2023-01-25T11:41:18.711Z,3.80
2023-01-25T11:44:18.971Z,3.70
2023-01-25T11:47:13.533Z,3.80
2023-01-25T11:50:27.752Z,3.80
2023-01-25T11:53:23.367Z,3.80
2023-01-25T11:56:26.031Z,3.80
2023-01-25T11:59:45.785Z,3.80
2023-01-25T12:02:45.889Z,3.80
2023-01-25T12:06:06.554Z,3.80
2023-01-25T12:09:05.936Z,3.80
2023-01-25T12:12:01.763Z,3.80
2023-01-25T12:14:51.841Z,3.80
2023-01-25T12:21:51.653Z,3.80
2023-01-25T12:33:26.506Z,3.90
2023-01-25T12:36:05.864Z,3.90
2023-01-25T12:39:20.411Z,4.00
2023-01-25T12:42:19.702Z,4.00
2023-01-25T12:44:59.061Z,4.00
2023-01-25T12:47:54.749Z,4.00
2023-01-25T12:50:27.601Z,4.00
2023-01-25T12:53:18.611Z,4.00
2023-01-25T12:55:49.594Z,4.00
2023-01-25T12:58:59.658Z,4.00
2023-01-25T13:02:03.581Z,4.10
2023-01-25T13:05:03.903Z,4.10
2023-01-25T13:08:31.717Z,4.10
2023-01-25T13:11:39.499Z,4.10
2023-01-25T13:15:16.071Z,4.10
2023-01-25T13:21:57.406Z,4.10
2023-01-25T13:24:36.127Z,4.00
2023-01-25T13:27:29.481Z,4.00
2023-01-25T13:30:24.263Z,4.00
2023-01-25T13:32:52.610Z,4.00
2023-01-25T13:35:30.118Z,4.00
2023-01-25T13:38:20.109Z,4.00
2023-01-25T13:41:12.742Z,4.00
2023-01-25T13:43:48.495Z,4.00
2023-01-25T13:46:24.938Z,4.00
2023-01-25T13:49:10.596Z,4.00
2023-01-25T13:51:42.152Z,4.00
2023-01-25T13:54:17.954Z,3.90
2023-01-25T13:56:50.067Z,4.00
2023-01-25T13:59:29.558Z,3.90
2023-01-25T14:02:00.150Z,3.90
2023-01-25T14:04:32.407Z,3.90
2023-01-25T14:07:10.112Z,3.90
2023-01-25T14:09:38.909Z,3.90
2023-01-25T14:12:12.541Z,3.90
2023-01-25T14:14:40.463Z,3.90
2023-01-25T14:17:30.396Z,3.80
2023-01-25T14:19:58.181Z,3.90
2023-01-25T14:22:38.255Z,3.80
2023-01-25T14:25:31.198Z,3.80
2023-01-25T14:28:03.684Z,3.80
2023-01-25T14:31:01.320Z,3.80
2023-01-25T14:33:33.425Z,3.80
2023-01-25T14:36:24.529Z,3.80
2023-01-25T14:38:54.613Z,3.80
2023-01-25T14:41:59.217Z,3.80
2023-01-25T14:44:30.445Z,3.80
2023-01-25T14:47:26.700Z,3.80
2023-01-25T14:54:23.632Z,3.70
2023-01-25T14:56:57.507Z,3.70
2023-01-25T15:04:50.771Z,3.60
2023-01-25T15:07:55.236Z,3.60
2023-01-25T15:10:27.837Z,3.60
2023-01-25T15:13:15.088Z,3.50
2023-01-25T15:16:06.785Z,3.50
2023-01-25T15:18:56.917Z,3.50
2023-01-25T15:21:34.465Z,3.50
2023-01-25T15:24:11.844Z,3.40
2023-01-25T15:27:18.639Z,3.40
2023-01-25T15:29:47.595Z,3.40
2023-01-25T15:32:22.139Z,3.40
2023-01-25T15:34:50.512Z,3.40
2023-01-25T15:37:18.838Z,3.30
2023-01-25T15:39:52.011Z,3.30
2023-01-25T15:42:19.941Z,3.30
2023-01-25T15:44:49.066Z,3.30
2023-01-25T15:47:17.867Z,3.30
2023-01-25T15:49:49.671Z,3.30
2023-01-25T15:52:17.410Z,3.20
2023-01-25T15:54:52.200Z,3.20
2023-01-25T15:57:36.921Z,3.20
2023-01-25T16:00:07.257Z,3.20
2023-01-25T16:02:35.265Z,3.10
2023-01-25T16:05:06.454Z,3.10
2023-01-25T16:07:38.461Z,3.10
2023-01-25T16:10:10.940Z,3.10
2023-01-25T16:12:39.520Z,3.10
2023-01-25T16:15:08.109Z,3.00
2023-01-25T16:17:36.487Z,3.00
2023-01-25T16:20:09.886Z,3.00
2023-01-25T16:22:37.993Z,2.90
2023-01-25T16:25:06.755Z,2.90
2023-01-25T16:27:36.315Z,2.80
2023-01-25T16:30:09.393Z,2.80
2023-01-25T16:32:37.460Z,2.80
2023-01-25T16:35:07.949Z,2.70
2023-01-25T16:37:57.361Z,2.70
2023-01-25T16:40:41.019Z,2.70
2023-01-25T16:43:10.452Z,2.60
2023-01-25T16:45:41.175Z,2.60
2023-01-25T16:48:17.934Z,2.60
2023-01-25T16:50:48.801Z,2.60
2023-01-25T16:53:22.055Z,2.60
2023-01-25T16:55:52.646Z,2.50
2023-01-25T16:58:21.093Z,2.50
2023-01-25T17:00:51.404Z,2.50
2023-01-25T17:03:19.724Z,2.50
2023-01-25T17:05:48.129Z,2.50
2023-01-25T17:08:16.550Z,2.50
2023-01-25T17:10:54.627Z,2.50
2023-01-25T17:13:27.699Z,2.50
2023-01-25T17:16:04.028Z,2.50
2023-01-25T17:18:36.166Z,2.50
2023-01-25T17:21:09.232Z,2.50
2023-01-25T17:23:38.374Z,2.50
2023-01-25T17:26:16.122Z,2.50
2023-01-25T17:28:48.817Z,2.50
2023-01-25T17:31:27.441Z,2.50
2023-01-25T17:34:08.636Z,2.50
2023-01-25T17:36:39.653Z,2.50
2023-01-25T17:39:08.522Z,2.50
2023-01-25T17:41:52.982Z,2.50
2023-01-25T17:44:26.025Z,2.50
2023-01-25T17:46:57.242Z,2.40
2023-01-25T17:49:28.627Z,2.30
2023-01-25T17:52:03.487Z,2.30
2023-01-25T17:54:32.432Z,2.30
2023-01-25T17:57:02.398Z,2.20
2023-01-25T17:59:35.240Z,2.20
2023-01-25T18:02:07.029Z,2.10
2023-01-25T18:04:35.854Z,2.10
2023-01-25T18:07:03.778Z,2.10
2023-01-25T18:09:44.906Z,2.10
2023-01-25T18:12:22.806Z,2.10
2023-01-25T18:14:50.658Z,2.10
2023-01-25T18:17:19.491Z,2.10
2023-01-25T18:19:47.347Z,2.10
2023-01-25T18:22:15.703Z,2.10
2023-01-25T18:25:36.031Z,2.10
2023-01-25T18:28:04.485Z,2.10
2023-01-25T18:30:38.155Z,2.10
2023-01-25T18:33:06.876Z,2.10
2023-01-25T18:35:44.698Z,2.10
2023-01-25T18:38:22.934Z,2.10
2023-01-25T18:48:39.001Z,2.10
2023-01-25T18:51:16.293Z,2.10
2023-01-25T18:53:50.846Z,2.10
2023-01-25T18:56:23.099Z,2.10
2023-01-25T18:58:52.623Z,2.10
2023-01-25T19:01:23.377Z,2.10
2023-01-25T19:03:55.779Z,2.10
2023-01-25T19:06:25.301Z,2.10
2023-01-25T19:08:54.722Z,2.10
2023-01-25T19:11:42.641Z,2.10
2023-01-25T19:14:10.492Z,2.10
2023-01-25T19:16:43.312Z,2.10
2023-01-25T19:19:11.830Z,2.10
2023-01-25T19:21:45.437Z,2.10
2023-01-25T19:24:18.066Z,2.10
2023-01-25T19:31:20.355Z,2.10
2023-01-25T19:38:17.950Z,2.10
2023-01-25T19:40:48.291Z,2.10
2023-01-25T19:43:15.679Z,2.10
2023-01-25T19:45:43.858Z,2.10
2023-01-25T19:48:13.885Z,2.10
2023-01-25T19:50:41.578Z,2.10
2023-01-25T19:53:13.381Z,2.10
2023-01-25T19:55:41.133Z,2.10
2023-01-25T19:58:11.089Z,2.10
2023-01-25T20:00:42.084Z,2.00
2023-01-25T20:03:16.174Z,2.10
2023-01-25T20:05:46.642Z,2.10
2023-01-25T20:08:17.146Z,2.10
2023-01-25T20:10:46.218Z,2.10
2023-01-25T20:13:17.667Z,2.10
2023-01-25T20:15:50.221Z,2.10
2023-01-25T20:18:24.831Z,2.10
2023-01-25T20:21:08.891Z,2.10
2023-01-25T20:23:49.299Z,2.10
2023-01-25T20:26:30.462Z,2.10
2023-01-25T20:29:02.786Z,2.10
2023-01-25T20:31:41.284Z,2.10
2023-01-25T20:34:17.567Z,2.20
2023-01-25T20:36:47.495Z,2.20
2023-01-25T20:39:28.217Z,2.20
2023-01-25T20:41:58.169Z,2.10
2023-01-25T20:44:29.934Z,2.10
2023-01-25T20:47:01.871Z,2.10
2023-01-25T20:49:30.545Z,2.10
2023-01-25T20:52:57.720Z,2.10
2023-01-25T20:55:28.451Z,2.10
2023-01-25T20:58:09.338Z,2.20
2023-01-25T21:00:40.544Z,2.20
2023-01-25T21:03:12.778Z,2.10
2023-01-25T21:05:43.879Z,2.10
2023-01-25T21:08:15.542Z,2.10
2023-01-25T21:11:04.649Z,2.10
2023-01-25T21:13:36.254Z,2.10
2023-01-25T21:16:25.023Z,2.10
2023-01-25T21:18:58.867Z,2.10
2023-01-25T21:21:34.374Z,2.10
2023-01-25T21:24:04.937Z,2.10
2023-01-25T21:26:46.704Z,2.10
2023-01-25T21:29:16.926Z,2.10
2023-01-25T21:31:44.441Z,2.10
2023-01-25T21:34:13.394Z,2.10
2023-01-25T21:36:41.301Z,2.10
2023-01-25T21:39:09.470Z,2.10
2023-01-25T21:41:39.369Z,2.10
2023-01-25T21:44:25.922Z,2.10
2023-01-25T21:47:23.532Z,2.10
2023-01-25T21:49:59.714Z,2.10
2023-01-25T21:52:27.038Z,2.10
2023-01-25T21:54:55.368Z,2.10
2023-01-25T21:57:24.531Z,2.10
2023-01-25T22:00:02.881Z,2.10
2023-01-25T22:02:34.779Z,2.10
2023-01-25T22:10:18.786Z,2.10
2023-01-25T22:12:51.100Z,2.20
2023-01-25T22:15:21.113Z,2.20
2023-01-25T22:17:49.345Z,2.20
2023-01-25T22:20:17.255Z,2.20
2023-01-25T22:22:47.589Z,2.20
2023-01-25T22:25:16.067Z,2.20
2023-01-25T22:28:00.696Z,2.20
2023-01-25T22:30:28.996Z,2.20
2023-01-25T22:32:57.968Z,2.20
2023-01-25T22:35:26.333Z,2.20
2023-01-25T22:37:55.632Z,2.20
2023-01-25T22:40:25.345Z,2.20
2023-01-25T22:42:55.207Z,2.30
2023-01-25T22:45:25.487Z,2.30
2023-01-25T22:47:54.052Z,2.30
2023-01-25T22:50:22.568Z,2.30
2023-01-25T22:52:51.101Z,2.30
2023-01-25T22:55:19.785Z,2.40
2023-01-25T22:57:50.744Z,2.40
2023-01-25T23:00:22.307Z,2.40
2023-01-25T23:02:50.887Z,2.40
2023-01-25T23:05:19.897Z,2.40
2023-01-25T23:07:47.921Z,2.40
2023-01-25T23:10:19.715Z,2.40
2023-01-25T23:12:51.976Z,2.40
2023-01-25T23:15:22.579Z,2.40
2023-01-25T23:18:08.566Z,2.40
2023-01-25T23:20:36.426Z,2.40
2023-01-25T23:23:04.343Z,2.40
2023-01-25T23:25:32.114Z,2.40
2023-01-25T23:28:07.569Z,2.40
2023-01-25T23:30:35.249Z,2.40
2023-01-25T23:33:02.929Z,2.40
2023-01-25T23:35:30.397Z,2.40
2023-01-25T23:37:57.961Z,2.40
2023-01-25T23:40:25.399Z,2.40
2023-01-25T23:42:52.787Z,2.40
2023-01-25T23:45:20.331Z,2.40
2023-01-25T23:47:48.106Z,2.40
2023-01-25T23:50:15.440Z,2.40
2023-01-25T23:52:42.817Z,2.40
2023-01-25T23:55:11.276Z,2.40
2023-01-25T23:57:38.481Z,2.40
